Time;durP1;ratioP1;P1;durP2;ratioP2;P2;SDS_P1;SDS_P2;PMS_P1;PMS_P2;Temp;Humidity;BMP_temperature;BMP_pressure;BME280_temperature;BME280_humidity;BME280_pressure;Samples;Min_cycle;Max_cycle;Signal;HPM_P1;HPM_P2
2023/09/22 00:02:05;;;;;;;2.80;0.82;;;14.40;99.90;;;;;;5066098;28;20017;-75
2023/09/22 00:04:32;;;;;;;1.60;0.98;;;14.40;99.90;;;;;;5049440;28;20109;-75
2023/09/22 00:06:58;;;;;;;3.78;1.10;;;14.30;99.90;;;;;;5048162;28;20029;-76
2023/09/22 00:09:26;;;;;;;5.05;0.88;;;14.20;99.90;;;;;;5066070;28;20201;-75
2023/09/22 00:11:57;;;;;;;2.53;1.08;;;14.20;99.90;;;;;;5065974;28;20057;-75
2023/09/22 00:14:33;;;;;;;4.43;1.15;;;14.20;99.90;;;;;;5048430;28;20021;-75
2023/09/22 00:17:01;;;;;;;1.75;1.08;;;14.30;99.90;;;;;;5050302;28;20211;-75
2023/09/22 00:19:31;;;;;;;3.28;1.20;;;14.30;99.90;;;;;;5049814;28;20013;-75
2023/09/22 00:21:57;;;;;;;3.83;1.10;;;14.20;99.90;;;;;;5054705;28;20042;-75
2023/09/22 00:24:23;;;;;;;1.73;1.10;;;14.30;99.90;;;;;;5049332;28;20032;-75
2023/09/22 00:26:48;;;;;;;3.42;1.15;;;14.10;99.90;;;;;;5059812;28;20039;-76
2023/09/22 00:29:19;;;;;;;7.35;1.50;;;14.00;99.90;;;;;;5048115;28;20040;-77
2023/09/22 00:31:44;;;;;;;5.20;1.35;;;14.10;99.90;;;;;;5066127;28;20021;-75
2023/09/22 00:34:10;;;;;;;3.65;1.55;;;14.10;99.90;;;;;;5054043;28;20097;-75
2023/09/22 00:36:55;;;;;;;5.07;1.83;;;13.90;99.90;;;;;;5059430;28;20091;-75
2023/09/22 00:39:23;;;;;;;2.15;1.50;;;13.90;99.90;;;;;;5049030;28;20026;-75
2023/09/22 00:41:54;;;;;;;2.27;1.40;;;14.00;99.90;;;;;;5048424;28;20037;-75
2023/09/22 00:44:20;;;;;;;4.60;1.48;;;13.80;99.90;;;;;;5049384;28;20024;-75
2023/09/22 00:47:14;;;;;;;3.10;1.00;;;14.10;99.90;;;;;;5052630;28;20057;-75
2023/09/22 00:49:49;;;;;;;2.43;1.40;;;14.00;99.90;;;;;;5065719;28;20042;-76
2023/09/22 00:52:22;;;;;;;2.97;1.57;;;13.80;99.90;;;;;;5048614;28;20013;-75
2023/09/22 00:54:50;;;;;;;4.40;1.90;;;14.00;99.90;;;;;;5048734;28;20036;-76
2023/09/22 00:57:20;;;;;;;6.07;2.63;;;13.80;99.90;;;;;;5064664;28;20013;-75
2023/09/22 00:59:52;;;;;;;2.40;1.38;;;13.80;99.90;;;;;;5055096;28;20041;-76
2023/09/22 01:02:17;;;;;;;3.40;1.80;;;13.80;99.90;;;;;;5064626;28;20038;-76
2023/09/22 01:04:56;;;;;;;1.27;1.10;;;13.70;99.90;;;;;;5055921;28;20072;-75
2023/09/22 01:07:31;;;;;;;6.13;2.00;;;13.60;99.90;;;;;;5066524;28;20038;-75
2023/09/22 01:10:20;;;;;;;4.10;1.40;;;13.70;99.90;;;;;;5062582;28;20110;-75
2023/09/22 01:12:55;;;;;;;1.83;1.30;;;13.50;99.90;;;;;;5066530;28;20112;-75
2023/09/22 01:15:28;;;;;;;7.97;4.00;;;13.50;99.90;;;;;;5050919;28;20033;-75
2023/09/22 01:17:56;;;;;;;5.60;1.50;;;13.50;99.90;;;;;;5049809;28;20085;-75
2023/09/22 01:20:22;;;;;;;2.03;1.13;;;13.50;99.90;;;;;;5049884;28;20033;-76
2023/09/22 01:22:48;;;;;;;2.47;1.63;;;13.40;99.90;;;;;;5050204;28;20036;-76
2023/09/22 01:25:14;;;;;;;2.17;1.30;;;13.40;99.90;;;;;;5051302;28;20021;-75
2023/09/22 01:27:42;;;;;;;7.80;1.97;;;13.40;99.90;;;;;;5066845;28;20032;-76
2023/09/22 01:30:15;;;;;;;3.87;1.10;;;13.30;99.90;;;;;;5049068;28;20042;-75
2023/09/22 01:32:43;;;;;;;7.97;3.00;;;13.40;99.90;;;;;;5050970;28;20205;-75
2023/09/22 01:35:17;;;;;;;4.80;3.10;;;13.20;99.90;;;;;;5048795;28;20041;-76
2023/09/22 01:37:53;;;;;;;4.00;1.90;;;13.30;99.90;;;;;;5050650;28;20052;-75
2023/09/22 01:40:21;;;;;;;5.63;3.07;;;13.30;99.90;;;;;;5049287;28;20022;-75
2023/09/22 01:42:57;;;;;;;4.90;3.10;;;13.20;99.90;;;;;;5053801;28;20045;-75
2023/09/22 01:45:27;;;;;;;13.93;3.33;;;13.10;99.90;;;;;;5049928;28;20089;-75
2023/09/22 01:48:21;;;;;;;8.27;3.07;;;13.00;99.90;;;;;;5062136;28;20028;-76
2023/09/22 01:50:59;;;;;;;2.57;1.43;;;13.00;99.90;;;;;;5066136;28;20025;-75
2023/09/22 01:53:40;;;;;;;6.50;2.20;;;13.00;99.90;;;;;;5050856;28;20018;-76
2023/09/22 01:56:17;;;;;;;3.50;1.17;;;13.00;99.90;;;;;;5066456;28;20024;-75
2023/09/22 01:58:45;;;;;;;4.83;1.77;;;13.00;99.90;;;;;;5048118;28;20021;-75
2023/09/22 02:01:34;;;;;;;6.40;2.57;;;13.00;99.90;;;;;;5050425;28;20025;-75
2023/09/22 02:04:06;;;;;;;4.17;1.93;;;12.90;99.90;;;;;;5050296;28;20097;-75
2023/09/22 02:06:31;;;;;;;3.58;1.40;;;12.90;99.90;;;;;;5050321;28;20075;-76
2023/09/22 02:08:59;;;;;;;4.13;1.53;;;12.80;99.90;;;;;;5065891;28;20059;-76
2023/09/22 02:11:32;;;;;;;4.10;1.10;;;12.80;99.90;;;;;;5050407;28;20017;-75
2023/09/22 02:14:07;;;;;;;1.70;1.47;;;12.80;99.90;;;;;;5062190;28;20056;-75
2023/09/22 02:16:36;;;;;;;5.20;1.50;;;12.80;99.90;;;;;;5050350;28;20040;-75
2023/09/22 02:19:01;;;;;;;2.13;1.37;;;12.80;99.90;;;;;;5066201;28;20022;-77
2023/09/22 02:21:34;;;;;;;2.63;1.50;;;12.80;99.90;;;;;;5049565;28;20046;-75
2023/09/22 02:24:05;;;;;;;1.77;1.57;;;12.80;99.90;;;;;;5065634;28;20029;-75
2023/09/22 02:26:36;;;;;;;3.90;1.73;;;12.70;99.90;;;;;;5055029;28;21205;-75
2023/09/22 02:29:02;;;;;;;2.23;1.50;;;12.70;99.90;;;;;;5055191;28;20064;-74
2023/09/22 02:31:30;;;;;;;4.97;1.70;;;12.70;99.90;;;;;;5053333;28;20038;-75
2023/09/22 02:33:56;;;;;;;2.70;1.53;;;12.50;99.90;;;;;;5055333;28;20304;-75
2023/09/22 02:36:28;;;;;;;2.63;1.50;;;12.70;99.90;;;;;;5066845;28;20215;-74
2023/09/22 02:38:58;;;;;;;2.78;1.30;;;12.50;99.90;;;;;;5049068;28;20022;-75
2023/09/22 02:41:26;;;;;;;2.60;1.50;;;12.70;99.90;;;;;;5047321;28;20022;-75
2023/09/22 02:44:15;;;;;;;1.97;1.30;;;12.50;99.90;;;;;;5129868;22;20037;-75
2023/09/22 02:46:41;;;;;;;4.57;1.70;;;12.60;99.90;;;;;;5064971;28;20031;-75
2023/09/22 02:49:08;;;;;;;5.43;1.80;;;12.60;99.90;;;;;;5062143;28;20041;-75
2023/09/22 02:51:52;;;;;;;3.70;1.70;;;12.50;99.90;;;;;;5062207;28;20032;-75
2023/09/22 02:54:28;;;;;;;4.13;1.70;;;12.40;99.90;;;;;;5062668;28;20037;-75
2023/09/22 02:57:19;;;;;;;3.57;1.40;;;12.40;99.90;;;;;;5062321;28;20051;-75
2023/09/22 02:59:52;;;;;;;5.90;1.30;;;12.50;99.90;;;;;;5062566;28;21428;-75
2023/09/22 03:02:21;;;;;;;2.77;1.77;;;12.40;99.90;;;;;;5061131;28;20036;-76
2023/09/22 03:04:55;;;;;;;4.63;2.03;;;12.50;99.90;;;;;;5077024;28;20045;-75
2023/09/22 03:07:23;;;;;;;4.07;1.93;;;12.40;99.90;;;;;;5063905;28;20057;-75
2023/09/22 03:09:49;;;;;;;3.47;2.03;;;12.40;99.90;;;;;;5063697;28;20037;-76
2023/09/22 03:12:19;;;;;;;6.57;1.90;;;12.40;99.90;;;;;;5065076;28;20014;-76
2023/09/22 03:15:00;;;;;;;;;;;;;;;;;;;;;
2023/09/22 03:17:28;;;;;;;7.90;2.60;;;12.30;99.90;;;;;;5067412;28;20036;-75
2023/09/22 03:19:54;;;;;;;7.37;2.43;;;12.30;99.90;;;;;;5064813;28;20086;-76
2023/09/22 03:22:26;;;;;;;4.67;2.77;;;12.30;99.90;;;;;;5066680;28;20044;-75
2023/09/22 03:24:52;;;;;;;;;;;12.40;99.90;;;;;;5067958;28;20025;-75
2023/09/22 03:27:25;;;;;;;3.27;2.20;;;12.40;99.90;;;;;;5065806;28;19937;-76
2023/09/22 03:29:58;;;;;;;3.07;2.27;;;12.40;99.90;;;;;;5066611;28;20072;-75
2023/09/22 03:32:27;;;;;;;6.20;3.00;;;12.40;99.90;;;;;;5062755;28;20017;-75
2023/09/22 03:34:57;;;;;;;7.17;3.20;;;12.50;99.90;;;;;;5062757;28;20025;-76
2023/09/22 03:37:27;;;;;;;13.23;3.50;;;12.60;99.90;;;;;;5066915;28;20018;-75
2023/09/22 03:39:54;;;;;;;4.90;2.80;;;12.50;99.90;;;;;;5064538;28;20017;-75
2023/09/22 03:42:23;;;;;;;8.43;2.80;;;12.40;99.90;;;;;;5064400;28;20124;-75
2023/09/22 03:45:16;;;;;;;3.30;2.30;;;12.70;99.90;;;;;;5064539;28;20064;-75
2023/09/22 03:47:55;;;;;;;5.97;2.80;;;12.60;99.90;;;;;;5065216;28;20024;-75
2023/09/22 03:50:39;;;;;;;5.47;2.73;;;12.60;99.90;;;;;;5064369;28;20104;-75
2023/09/22 03:53:07;;;;;;;4.43;3.07;;;12.70;99.90;;;;;;5066043;28;20025;-75
2023/09/22 03:55:40;;;;;;;5.83;3.20;;;12.70;99.90;;;;;;5063983;28;20017;-75
2023/09/22 03:58:08;;;;;;;5.03;3.17;;;12.70;99.90;;;;;;5066536;28;20025;-76
2023/09/22 04:00:43;;;;;;;6.80;3.07;;;12.70;99.90;;;;;;5064205;28;20020;-77
2023/09/22 04:03:12;;;;;;;4.90;2.90;;;12.70;99.90;;;;;;5063529;28;20056;-76
2023/09/22 04:05:43;;;;;;;4.33;3.00;;;12.70;99.90;;;;;;5063127;28;20029;-75
2023/09/22 04:08:19;;;;;;;12.10;3.23;;;12.70;99.90;;;;;;5064402;28;21148;-76
2023/09/22 04:10:46;;;;;;;6.83;2.60;;;12.70;99.90;;;;;;5062936;28;20025;-75
2023/09/22 04:13:12;;;;;;;5.50;2.20;;;12.60;99.90;;;;;;5064278;28;20094;-76
2023/09/22 04:15:40;;;;;;;6.20;2.20;;;12.70;99.90;;;;;;5064368;28;20037;-75
2023/09/22 04:18:09;;;;;;;7.93;2.53;;;12.60;99.90;;;;;;5061608;28;20037;-75
2023/09/22 04:20:37;;;;;;;3.43;2.40;;;12.70;99.90;;;;;;5063319;28;20044;-75
2023/09/22 04:23:06;;;;;;;3.90;2.47;;;12.70;99.90;;;;;;5061722;28;20081;-75
2023/09/22 04:25:36;;;;;;;5.87;2.13;;;12.70;99.90;;;;;;5062247;28;20036;-76
2023/09/22 04:28:17;;;;;;;4.33;2.43;;;12.70;99.90;;;;;;5064031;28;20025;-75
2023/09/22 04:30:45;;;;;;;4.17;2.70;;;12.70;99.90;;;;;;5063859;28;20033;-75
2023/09/22 04:33:21;;;;;;;5.50;2.70;;;12.80;99.90;;;;;;5064140;28;20021;-75
2023/09/22 04:35:54;;;;;;;3.67;2.23;;;12.70;99.90;;;;;;5066100;28;20020;-75
2023/09/22 04:38:21;;;;;;;5.63;2.47;;;12.80;99.90;;;;;;5062470;28;20150;-76
2023/09/22 04:40:49;;;;;;;6.60;2.60;;;12.80;99.90;;;;;;5063547;28;20029;-75
2023/09/22 04:43:17;;;;;;;4.20;2.13;;;12.60;99.90;;;;;;5062988;28;20021;-75
2023/09/22 04:45:46;;;;;;;4.27;1.80;;;12.80;99.90;;;;;;5066051;28;20013;-75
2023/09/22 04:48:17;;;;;;;4.80;2.10;;;12.80;99.90;;;;;;5064378;28;20041;-75
2023/09/22 04:50:50;;;;;;;5.23;2.63;;;12.80;99.90;;;;;;5059428;28;20049;-75
2023/09/22 04:53:18;;;;;;;4.87;2.13;;;12.90;99.90;;;;;;5061993;28;20066;-75
2023/09/22 04:55:57;;;;;;;4.03;1.90;;;12.90;99.90;;;;;;5062719;28;20057;-75
2023/09/22 04:58:31;;;;;;;6.50;2.33;;;12.90;99.90;;;;;;5062419;28;20040;-75
2023/09/22 05:01:06;;;;;;;4.03;2.57;;;12.80;99.90;;;;;;5062240;28;20044;-75
2023/09/22 05:03:34;;;;;;;7.83;2.77;;;12.80;99.90;;;;;;5064861;28;20024;-75
2023/09/22 05:06:13;;;;;;;4.80;2.57;;;12.80;99.90;;;;;;5064255;28;21105;-75
2023/09/22 05:08:44;;;;;;;6.57;2.83;;;12.70;99.90;;;;;;5062399;28;20033;-75
2023/09/22 05:11:29;;;;;;;5.00;2.63;;;12.70;99.90;;;;;;5062822;28;20029;-75
2023/09/22 05:13:58;;;;;;;6.57;2.07;;;12.70;99.90;;;;;;5061654;28;20041;-75
2023/09/22 05:16:35;;;;;;;6.37;2.43;;;12.70;99.90;;;;;;5064149;28;20051;-75
2023/09/22 05:19:03;;;;;;;4.27;2.13;;;12.70;99.90;;;;;;5060358;28;20013;-75
2023/09/22 05:21:35;;;;;;;5.30;2.57;;;12.70;99.90;;;;;;5060852;28;20059;-74
2023/09/22 05:24:04;;;;;;;7.63;2.53;;;12.60;99.90;;;;;;5061491;28;20013;-76
2023/09/22 05:26:46;;;;;;;6.67;2.37;;;12.60;99.90;;;;;;5063435;28;20038;-75
2023/09/22 05:29:23;;;;;;;9.07;2.65;;;12.50;99.90;;;;;;5060276;28;20041;-75
2023/09/22 05:31:51;;;;;;;7.80;2.87;;;12.60;99.90;;;;;;5062086;28;20045;-75
2023/09/22 05:34:27;;;;;;;;;;;;;;;;;;;;;
2023/09/22 05:37:06;;;;;;;6.60;2.70;;;12.50;99.90;;;;;;5064772;28;20049;-75
2023/09/22 05:39:38;;;;;;;6.27;2.13;;;12.50;99.90;;;;;;5063169;28;20077;-75
2023/09/22 05:42:08;;;;;;;7.97;2.93;;;12.50;99.90;;;;;;5061741;28;20025;-75
2023/09/22 05:44:53;;;;;;;6.27;3.17;;;12.50;99.90;;;;;;5062676;28;20025;-75
2023/09/22 05:47:23;;;;;;;7.60;2.90;;;12.50;99.90;;;;;;5062507;28;20029;-76
2023/09/22 05:49:51;;;;;;;3.63;2.20;;;12.40;99.90;;;;;;5063018;28;20041;-76
2023/09/22 05:52:21;;;;;;;4.23;2.40;;;12.50;99.90;;;;;;5062057;28;20033;-75
2023/09/22 05:54:55;;;;;;;5.10;2.50;;;12.50;99.90;;;;;;5063872;28;20017;-75
2023/09/22 05:57:22;;;;;;;5.53;2.67;;;12.50;99.90;;;;;;5059795;28;20010;-75
2023/09/22 05:59:58;;;;;;;4.30;2.70;;;12.50;99.90;;;;;;5061889;28;20041;-75
2023/09/22 06:02:35;;;;;;;4.27;3.07;;;12.30;99.90;;;;;;5063102;28;20017;-77
2023/09/22 06:05:12;;;;;;;7.43;2.57;;;12.40;99.90;;;;;;5063028;28;20071;-75
2023/09/22 06:07:38;;;;;;;10.27;2.80;;;12.30;99.90;;;;;;5061139;28;20025;-75
2023/09/22 06:10:09;;;;;;;4.00;2.10;;;12.50;99.90;;;;;;5061659;28;20040;-75
2023/09/22 06:12:58;;;;;;;5.97;2.23;;;12.40;99.90;;;;;;5061759;28;20051;-75
2023/09/22 06:15:44;;;;;;;5.47;2.67;;;12.50;99.90;;;;;;5062099;28;20034;-75
2023/09/22 06:18:18;;;;;;;7.40;2.47;;;12.60;99.90;;;;;;5062426;28;20020;-75
2023/09/22 06:20:58;;;;;;;8.47;3.87;;;12.40;99.90;;;;;;5060202;28;20044;-75
2023/09/22 06:23:32;;;;;;;6.63;2.50;;;12.60;99.90;;;;;;5067871;28;20024;-77
2023/09/22 06:26:49;;;;;;;6.17;2.63;;;12.60;99.90;;;;;;5059458;28;20025;-75
2023/09/22 06:29:18;;;;;;;6.83;1.90;;;12.50;99.90;;;;;;5062912;28;20045;-75
2023/09/22 06:31:55;;;;;;;4.90;2.33;;;12.60;99.90;;;;;;5063158;28;20041;-76
2023/09/22 06:34:27;;;;;;;9.90;3.27;;;12.70;99.90;;;;;;5061355;28;20084;-76
2023/09/22 06:37:00;;;;;;;4.27;1.80;;;12.50;99.90;;;;;;5062552;28;20013;-75
2023/09/22 06:39:47;;;;;;;3.37;2.10;;;12.60;99.90;;;;;;5064083;28;20021;-75
2023/09/22 06:42:15;;;;;;;4.07;2.27;;;12.60;99.90;;;;;;5064200;28;20021;-75
2023/09/22 06:44:51;;;;;;;;;;;;;;;;;;;;;
2023/09/22 06:47:20;;;;;;;4.17;1.90;;;12.60;99.90;;;;;;5064538;28;20060;-75
2023/09/22 06:50:01;;;;;;;;;;;;;;;;;;;;;
2023/09/22 06:52:32;;;;;;;6.47;2.57;;;12.80;99.90;;;;;;5066523;28;20036;-75
2023/09/22 06:55:13;;;;;;;6.73;2.70;;;12.80;99.90;;;;;;5065302;28;20242;-75
2023/09/22 06:58:06;;;;;;;8.20;2.30;;;12.80;99.90;;;;;;5062897;28;20029;-75
2023/09/22 07:00:30;;;;;;;6.77;1.90;;;12.90;99.90;;;;;;5063501;28;20044;-75
2023/09/22 07:03:00;;;;;;;5.13;2.13;;;13.00;99.90;;;;;;5062712;28;20089;-75
2023/09/22 07:05:33;;;;;;;4.20;1.98;;;13.00;99.90;;;;;;5065585;28;20021;-75
2023/09/22 07:08:04;;;;;;;8.17;3.23;;;13.00;99.90;;;;;;5066066;28;20045;-75
2023/09/22 07:10:37;;;;;;;5.10;2.27;;;13.00;99.90;;;;;;5066597;28;20874;-75
2023/09/22 07:13:10;;;;;;;10.33;3.20;;;12.90;99.90;;;;;;5071572;28;20085;-75
2023/09/22 07:15:54;;;;;;;;;;;;;;;;;;;;;
2023/09/22 07:18:24;;;;;;;4.80;1.67;;;13.10;99.90;;;;;;5064891;28;20060;-75
2023/09/22 07:20:53;;;;;;;2.47;1.30;;;13.10;99.90;;;;;;5062603;28;20087;-75
2023/09/22 07:23:24;;;;;;;4.50;2.00;;;13.10;99.90;;;;;;5064260;28;20080;-75
2023/09/22 07:26:13;;;;;;;5.43;2.88;;;13.10;99.90;;;;;;5063360;28;20077;-74
2023/09/22 07:28:46;;;;;;;3.67;1.83;;;13.20;99.90;;;;;;5066770;28;20045;-74
2023/09/22 07:31:30;;;;;;;;;;;;;;;;;;;;;
2023/09/22 07:33:57;;;;;;;2.53;1.50;;;13.10;99.90;;;;;;5062325;28;20048;-75
2023/09/22 07:36:31;;;;;;;2.93;1.27;;;13.30;99.90;;;;;;5063879;28;20029;-74
2023/09/22 07:39:02;;;;;;;3.90;1.50;;;13.30;99.90;;;;;;5065712;28;20025;-74
2023/09/22 07:41:28;;;;;;;5.00;1.30;;;13.40;99.90;;;;;;5065802;28;20025;-74
2023/09/22 07:43:58;;;;;;;3.65;1.50;;;13.40;99.90;;;;;;5062574;28;20068;-75
2023/09/22 07:46:26;;;;;;;3.13;1.58;;;13.50;99.90;;;;;;5063270;28;20060;-76
2023/09/22 07:48:52;;;;;;;4.68;1.15;;;13.40;99.90;;;;;;5063941;28;20040;-75
2023/09/22 07:51:35;;;;;;;;;;;;;;;;;;;;;
2023/09/22 07:54:12;;;;;;;6.22;1.50;;;13.50;99.90;;;;;;5064053;28;20405;-75
2023/09/22 07:56:42;;;;;;;4.30;1.02;;;13.50;99.90;;;;;;5063676;28;20037;-74
2023/09/22 07:59:13;;;;;;;3.60;1.00;;;13.60;99.90;;;;;;5062858;28;20017;-75
2023/09/22 08:01:42;;;;;;;5.07;0.85;;;13.60;99.90;;;;;;5064564;28;20045;-75
2023/09/22 08:04:14;;;;;;;3.08;1.25;;;13.70;99.90;;;;;;5066565;28;20104;-74
2023/09/22 08:06:43;;;;;;;2.30;1.60;;;13.70;99.90;;;;;;5065099;28;20159;-74
2023/09/22 08:09:20;;;;;;;4.43;1.20;;;13.60;99.90;;;;;;5064417;28;20048;-75
2023/09/22 08:11:50;;;;;;;6.05;1.38;;;13.80;99.90;;;;;;5063371;28;20058;-74
2023/09/22 08:14:35;;;;;;;2.53;1.33;;;13.80;99.90;;;;;;5068920;28;20029;-74
2023/09/22 08:17:09;;;;;;;4.63;1.23;;;13.80;99.90;;;;;;5062645;28;20117;-74
2023/09/22 08:19:37;;;;;;;3.95;1.45;;;13.80;99.90;;;;;;5060882;28;20407;-75
2023/09/22 08:22:08;;;;;;;3.50;1.20;;;13.90;99.90;;;;;;5059693;28;20040;-75
2023/09/22 08:24:40;;;;;;;2.03;1.20;;;13.90;99.90;;;;;;5061871;28;20029;-74
2023/09/22 08:27:08;;;;;;;2.38;0.98;;;14.00;99.90;;;;;;5058224;28;20021;-74
2023/09/22 08:29:34;;;;;;;6.82;1.65;;;13.90;99.90;;;;;;5060153;28;21101;-75
2023/09/22 08:32:06;;;;;;;3.80;1.42;;;14.00;99.90;;;;;;5060244;28;20017;-75
2023/09/22 08:34:41;;;;;;;3.67;1.88;;;14.00;99.90;;;;;;5058270;28;20039;-74
2023/09/22 08:37:06;;;;;;;3.63;1.42;;;14.20;99.90;;;;;;5063238;28;20056;-74
2023/09/22 08:39:35;;;;;;;2.95;0.90;;;14.20;99.90;;;;;;5060210;28;20017;-74
2023/09/22 08:42:13;;;;;;;3.90;1.30;;;14.30;99.90;;;;;;5060651;28;20021;-75
2023/09/22 08:44:39;;;;;;;4.10;1.10;;;14.30;99.90;;;;;;5059421;28;20041;-75
2023/09/22 08:47:15;;;;;;;2.85;0.95;;;14.40;99.90;;;;;;5061864;28;20021;-74
2023/09/22 08:49:43;;;;;;;3.00;0.88;;;14.50;99.90;;;;;;5061591;28;20075;-75
2023/09/22 08:52:17;;;;;;;2.38;0.80;;;14.70;99.90;;;;;;5062290;28;20097;-74
2023/09/22 08:54:44;;;;;;;2.60;0.93;;;14.80;99.90;;;;;;5065335;28;20032;-74
2023/09/22 08:57:11;;;;;;;4.88;1.10;;;14.90;99.90;;;;;;5077150;28;20040;-75
2023/09/22 08:59:41;;;;;;;1.85;0.60;;;15.00;99.90;;;;;;5058566;28;20034;-75
2023/09/22 09:02:17;;;;;;;5.25;1.63;;;14.90;99.90;;;;;;5061560;28;20080;-74
2023/09/22 09:04:47;;;;;;;4.43;1.38;;;15.10;99.90;;;;;;5062367;28;20172;-75
2023/09/22 09:07:20;;;;;;;3.42;0.85;;;15.20;99.90;;;;;;5060406;28;20045;-76
2023/09/22 09:09:48;;;;;;;2.97;0.68;;;15.20;99.90;;;;;;5061853;28;20033;-75
2023/09/22 09:12:16;;;;;;;3.15;1.20;;;15.30;99.90;;;;;;5059810;28;20022;-75
2023/09/22 09:14:47;;;;;;;3.42;0.65;;;15.40;99.90;;;;;;5062325;28;20029;-75
2023/09/22 09:17:22;;;;;;;5.15;0.85;;;15.40;99.90;;;;;;5062449;28;20194;-74
2023/09/22 09:20:00;;;;;;;1.48;0.43;;;15.40;99.90;;;;;;5075646;28;20040;-74
2023/09/22 09:22:37;;;;;;;1.67;0.65;;;15.60;99.90;;;;;;5066119;28;20072;-74
2023/09/22 09:25:09;;;;;;;6.97;0.93;;;15.70;99.90;;;;;;5060455;28;20017;-74
2023/09/22 09:27:35;;;;;;;4.05;0.50;;;15.80;99.90;;;;;;5060413;28;20129;-74
2023/09/22 09:30:08;;;;;;;2.35;0.95;;;15.80;99.90;;;;;;5061922;28;20045;-75
2023/09/22 09:32:34;;;;;;;3.40;1.00;;;16.00;99.90;;;;;;5061469;28;20013;-74
2023/09/22 09:35:00;;;;;;;2.53;0.68;;;16.10;99.90;;;;;;5060869;28;20081;-74
2023/09/22 09:37:26;;;;;;;1.35;0.50;;;16.10;99.90;;;;;;5062915;28;20028;-74
2023/09/22 09:40:00;;;;;;;2.35;0.50;;;16.10;99.90;;;;;;5061032;28;20041;-75
2023/09/22 09:42:26;;;;;;;2.67;0.63;;;16.20;99.90;;;;;;5063143;28;20025;-75
2023/09/22 09:44:54;;;;;;;1.95;0.60;;;16.20;99.90;;;;;;5061094;28;20013;-75
2023/09/22 09:47:25;;;;;;;3.10;0.47;;;16.30;99.90;;;;;;5064810;28;20032;-76
2023/09/22 09:49:53;;;;;;;3.63;0.68;;;16.20;99.90;;;;;;5074801;28;20097;-75
2023/09/22 09:52:33;;;;;;;2.85;0.40;;;16.20;99.90;;;;;;5061369;28;20026;-74
2023/09/22 09:55:09;;;;;;;3.28;0.60;;;16.20;99.90;;;;;;5064742;28;20025;-74
2023/09/22 09:57:38;;;;;;;2.33;1.00;;;16.30;99.90;;;;;;5065343;28;20017;-75
2023/09/22 10:00:14;;;;;;;3.00;0.80;;;16.30;99.90;;;;;;5064228;28;20022;-75
2023/09/22 10:02:44;;;;;;;1.92;0.70;;;16.40;99.90;;;;;;5063421;28;20041;-74
2023/09/22 10:05:23;;;;;;;0.82;0.50;;;16.40;99.90;;;;;;5061178;28;20059;-74
2023/09/22 10:07:50;;;;;;;2.20;0.60;;;16.50;99.90;;;;;;5062986;28;20043;-75
2023/09/22 10:10:19;;;;;;;3.20;0.77;;;16.50;99.90;;;;;;5063822;28;20044;-74
2023/09/22 10:12:46;;;;;;;3.60;0.60;;;16.50;99.90;;;;;;5064007;28;20017;-75
2023/09/22 10:15:12;;;;;;;4.55;0.90;;;16.60;99.90;;;;;;5061163;28;20021;-75
2023/09/22 10:17:39;;;;;;;3.00;0.90;;;16.60;99.90;;;;;;5062064;28;20010;-75
2023/09/22 10:20:07;;;;;;;1.77;0.70;;;16.60;99.90;;;;;;5066516;28;20013;-74
2023/09/22 10:22:38;;;;;;;2.92;0.52;;;16.60;99.90;;;;;;5062750;28;20259;-75
2023/09/22 10:25:19;;;;;;;1.70;0.50;;;16.60;99.90;;;;;;5062913;28;20198;-75
2023/09/22 10:28:02;;;;;;;3.28;0.38;;;16.60;99.90;;;;;;5062565;28;20030;-74
2023/09/22 10:31:02;;;;;;;3.08;0.70;;;16.60;99.90;;;;;;5063404;28;20037;-74
2023/09/22 10:33:32;;;;;;;0.63;0.28;;;16.70;99.90;;;;;;5042818;28;20056;-74
2023/09/22 10:35:58;;;;;;;1.65;0.68;;;16.70;99.90;;;;;;5059625;28;20099;-74
2023/09/22 10:38:25;;;;;;;4.40;1.33;;;16.80;99.90;;;;;;5059795;28;20097;-74
2023/09/22 10:41:03;;;;;;;2.05;0.50;;;16.80;99.90;;;;;;5062301;28;20085;-74
2023/09/22 10:43:32;;;;;;;2.22;0.60;;;16.80;99.90;;;;;;5062167;28;20064;-74
2023/09/22 10:46:00;;;;;;;1.45;0.50;;;16.80;99.90;;;;;;5063947;28;20104;-74
2023/09/22 10:48:35;;;;;;;3.30;0.73;;;16.80;99.90;;;;;;5061461;28;20026;-74
2023/09/22 10:51:06;;;;;;;1.88;0.75;;;16.80;99.90;;;;;;5063230;28;20047;-74
2023/09/22 10:53:34;;;;;;;4.63;0.93;;;16.90;99.90;;;;;;5058376;28;20029;-73
2023/09/22 10:56:05;;;;;;;3.83;0.80;;;16.90;99.90;;;;;;5064149;28;20032;-74
2023/09/22 10:58:31;;;;;;;3.67;0.70;;;16.90;99.90;;;;;;5058800;28;20043;-74
2023/09/22 11:01:04;;;;;;;2.70;0.60;;;17.10;99.90;;;;;;5058937;28;20088;-74
2023/09/22 11:03:37;;;;;;;1.98;0.85;;;17.00;99.90;;;;;;5058520;28;20033;-73
2023/09/22 11:06:27;;;;;;;2.08;0.93;;;16.90;99.90;;;;;;5060932;28;20021;-73
2023/09/22 11:09:25;;;;;;;;;;;;;;;;;;;;;
2023/09/22 11:11:51;;;;;;;2.80;1.15;;;17.00;99.90;;;;;;5062751;28;20048;-74
2023/09/22 11:14:20;;;;;;;2.42;0.50;;;17.10;99.90;;;;;;5063162;28;20036;-74
2023/09/22 11:16:48;;;;;;;1.50;0.50;;;17.10;99.90;;;;;;5060984;28;20040;-74
2023/09/22 11:19:14;;;;;;;2.20;0.50;;;17.20;99.90;;;;;;5062783;28;20029;-73
2023/09/22 11:21:51;;;;;;;2.22;0.77;;;17.20;99.90;;;;;;5060923;28;20026;-74
2023/09/22 11:24:21;;;;;;;3.67;0.75;;;17.30;99.90;;;;;;5058017;28;20052;-74
2023/09/22 11:26:50;;;;;;;1.25;0.55;;;17.50;99.90;;;;;;5059087;28;20124;-74
2023/09/22 11:29:16;;;;;;;6.15;0.73;;;17.60;99.90;;;;;;5062347;28;20035;-73
2023/09/22 11:31:49;;;;;;;1.88;0.70;;;17.70;99.90;;;;;;5067406;28;20021;-74
2023/09/22 11:34:17;;;;;;;2.88;1.27;;;17.80;99.90;;;;;;5063232;28;20020;-74
2023/09/22 11:36:54;;;;;;;1.77;0.70;;;17.80;99.90;;;;;;5067057;28;20104;-75
2023/09/22 11:39:26;;;;;;;2.15;0.80;;;18.00;99.90;;;;;;5067755;28;20017;-75
2023/09/22 11:41:53;;;;;;;3.33;0.50;;;18.20;99.90;;;;;;5069287;28;20028;-74
2023/09/22 11:44:18;;;;;;;2.25;0.80;;;18.30;99.90;;;;;;5066849;28;20033;-74
2023/09/22 11:46:50;;;;;;;2.42;0.75;;;18.30;99.90;;;;;;5059998;28;20052;-76
2023/09/22 11:49:27;;;;;;;4.30;1.08;;;18.30;99.90;;;;;;5064485;28;20029;-74
2023/09/22 11:51:58;;;;;;;3.47;0.70;;;18.20;99.90;;;;;;5063325;28;20087;-74
2023/09/22 11:54:26;;;;;;;6.72;1.00;;;18.10;99.90;;;;;;5060164;28;20044;-74
2023/09/22 11:56:56;;;;;;;1.38;0.70;;;18.10;99.90;;;;;;5066704;28;20025;-74
2023/09/22 11:59:23;;;;;;;2.65;0.63;;;18.10;99.90;;;;;;5065354;28;20055;-75
2023/09/22 12:01:52;;;;;;;1.88;0.47;;;18.10;99.90;;;;;;5064424;28;20028;-75
2023/09/22 12:04:19;;;;;;;2.92;0.70;;;18.10;99.90;;;;;;5061762;28;20072;-76
2023/09/22 12:06:45;;;;;;;2.65;0.50;;;18.10;99.90;;;;;;5068958;28;20026;-75
2023/09/22 12:09:12;;;;;;;1.88;0.47;;;18.10;99.90;;;;;;5068714;28;20033;-74
2023/09/22 12:11:39;;;;;;;2.55;0.60;;;18.10;99.90;;;;;;5065977;28;20025;-74
2023/09/22 12:14:05;;;;;;;1.95;0.52;;;18.10;99.90;;;;;;5066674;28;20021;-74
2023/09/22 12:16:31;;;;;;;2.47;0.65;;;18.20;99.90;;;;;;5064267;28;20020;-74
2023/09/22 12:18:58;;;;;;;2.22;0.60;;;18.20;99.90;;;;;;5066300;28;20024;-74
2023/09/22 12:21:31;;;;;;;3.20;0.70;;;18.20;99.90;;;;;;5066726;28;20035;-75
2023/09/22 12:23:57;;;;;;;2.63;0.50;;;18.20;99.90;;;;;;5067905;28;20025;-74
2023/09/22 12:26:26;;;;;;;2.85;0.60;;;18.30;99.90;;;;;;5065826;28;20088;-74
2023/09/22 12:28:52;;;;;;;2.80;0.98;;;18.40;99.90;;;;;;5060144;28;20043;-75
2023/09/22 12:31:18;;;;;;;3.58;0.50;;;18.50;99.90;;;;;;5053331;28;20044;-87
2023/09/22 12:33:47;;;;;;;2.45;1.23;;;18.60;99.90;;;;;;5046844;28;20037;-81
2023/09/22 12:36:14;;;;;;;0.82;0.52;;;18.80;99.90;;;;;;5047215;28;20617;-84
2023/09/22 12:38:43;;;;;;;0.98;0.45;;;18.90;99.90;;;;;;5038279;28;20037;-86
2023/09/22 12:41:14;;;;;;;2.47;1.00;;;19.00;99.90;;;;;;5042630;28;20036;-94
2023/09/22 12:43:40;;;;;;;5.03;1.17;;;19.10;99.90;;;;;;5037868;28;20149;-88
2023/09/22 12:46:09;;;;;;;7.68;0.60;;;19.20;99.90;;;;;;5054307;28;20552;-93
2023/09/22 12:48:39;;;;;;;3.05;0.82;;;19.40;99.90;;;;;;5035941;28;20033;-88
2023/09/22 12:51:06;;;;;;;2.92;0.77;;;19.50;99.90;;;;;;5041249;28;20025;-86
2023/09/22 12:53:31;;;;;;;1.73;0.70;;;19.60;99.90;;;;;;5036960;28;20465;-85
2023/09/22 12:55:57;;;;;;;1.95;0.45;;;19.70;99.90;;;;;;5038893;28;20021;-86
2023/09/22 12:58:27;;;;;;;3.15;0.55;;;19.70;99.90;;;;;;5039205;28;20458;-87
2023/09/22 13:00:57;;;;;;;0.47;0.25;;;19.80;99.90;;;;;;5040896;28;20084;-85
2023/09/22 13:03:23;;;;;;;1.50;0.47;;;19.80;99.90;;;;;;5040544;28;20068;-85
2023/09/22 13:05:48;;;;;;;2.08;0.68;;;19.80;99.90;;;;;;5053065;28;20422;-91
2023/09/22 13:08:16;;;;;;;2.63;0.95;;;19.70;99.90;;;;;;5040527;28;20029;-86
2023/09/22 13:10:42;;;;;;;3.03;0.93;;;19.70;99.90;;;;;;5039612;28;20044;-82
2023/09/22 13:13:09;;;;;;;2.25;0.65;;;19.40;99.90;;;;;;5036145;28;20029;-87
2023/09/22 13:15:40;;;;;;;2.60;0.60;;;19.30;99.90;;;;;;5036228;28;20032;-89
2023/09/22 13:18:06;;;;;;;1.55;0.60;;;19.20;99.90;;;;;;5036667;28;20021;-81
2023/09/22 13:20:40;;;;;;;0.88;0.47;;;19.20;99.90;;;;;;5035963;28;20049;-91